Time;durP1;ratioP1;P1;durP2;ratioP2;P2;SDS_P1;SDS_P2;PMS_P1;PMS_P2;Temp;Humidity;BMP_temperature;BMP_pressure;BME280_temperature;BME280_humidity;BME280_pressure;Samples;Min_cycle;Max_cycle;Signal;HPM_P1;HPM_P2
2024/02/02 00:00:47;;;;;;;;;;;1.70;83.80;;;;;;5012877;28;86397;-56
2024/02/02 00:03:12;;;;;;;;;;;1.70;83.70;;;;;;5015995;28;86901;-56
2024/02/02 00:05:38;;;;;;;;;;;1.70;83.70;;;;;;5017639;28;87429;-56
2024/02/02 00:08:04;;;;;;;;;;;1.70;83.70;;;;;;5015401;28;87936;-56
2024/02/02 00:10:29;;;;;;;;;;;1.60;83.50;;;;;;5013007;28;88930;-56
2024/02/02 00:12:55;;;;;;;;;;;1.70;83.70;;;;;;5016393;28;88272;-56
2024/02/02 00:15:21;;;;;;;;;;;1.70;83.70;;;;;;5011394;28;86997;-56
2024/02/02 00:17:47;;;;;;;;;;;1.60;83.70;;;;;;5017410;28;87911;-55
2024/02/02 00:20:14;;;;;;;;;;;1.60;83.60;;;;;;5012261;28;86983;-56
2024/02/02 00:22:39;;;;;;;;;;;1.70;83.50;;;;;;5017451;28;87106;-57
2024/02/02 00:25:05;;;;;;;;;;;1.60;84.00;;;;;;5016063;28;86728;-56
2024/02/02 00:27:30;;;;;;;;;;;1.60;83.40;;;;;;5013382;28;86995;-57
2024/02/02 00:29:56;;;;;;;;;;;1.60;84.00;;;;;;5013755;28;86890;-55
2024/02/02 00:32:22;;;;;;;;;;;1.60;83.40;;;;;;5013219;28;87766;-55
2024/02/02 00:34:47;;;;;;;;;;;1.60;83.30;;;;;;5012985;28;87091;-54
2024/02/02 00:37:13;;;;;;;;;;;1.60;83.50;;;;;;5014429;28;86955;-56
2024/02/02 00:39:38;;;;;;;;;;;1.60;83.30;;;;;;5017882;28;88449;-56
2024/02/02 00:42:04;;;;;;;;;;;1.60;83.30;;;;;;5017651;28;87839;-53
2024/02/02 00:44:29;;;;;;;;;;;1.60;83.30;;;;;;5020964;28;87678;-57
2024/02/02 00:46:55;;;;;;;;;;;1.60;84.00;;;;;;5019139;28;87031;-56
2024/02/02 00:49:23;;;;;;;;;;;1.60;83.40;;;;;;5021350;28;87975;-55
2024/02/02 00:51:49;;;;;;;;;;;1.60;83.30;;;;;;5021574;28;88816;-55
2024/02/02 00:54:14;;;;;;;;;;;1.60;83.40;;;;;;5017637;28;87485;-55
2024/02/02 00:56:40;;;;;;;;;;;1.60;83.30;;;;;;5020144;28;87874;-55
2024/02/02 00:59:05;;;;;;;;;;;1.60;83.40;;;;;;5018548;28;87284;-56
2024/02/02 01:01:31;;;;;;;;;;;1.60;83.30;;;;;;5021925;28;87004;-56
2024/02/02 01:03:57;;;;;;;;;;;1.60;83.30;;;;;;5012781;28;88419;-57
2024/02/02 01:06:22;;;;;;;;;;;1.60;83.30;;;;;;5015290;28;87062;-56
2024/02/02 01:08:48;;;;;;;;;;;1.60;83.40;;;;;;5015371;28;87288;-56
2024/02/02 01:11:14;;;;;;;;;;;1.60;83.40;;;;;;5016928;28;88434;-54
2024/02/02 01:13:40;;;;;;;;;;;1.60;83.30;;;;;;5017983;28;86210;-56
2024/02/02 01:16:06;;;;;;;;;;;1.60;83.50;;;;;;5017606;28;86944;-56
2024/02/02 01:18:32;;;;;;;;;;;1.60;83.50;;;;;;5014319;28;86971;-55
2024/02/02 01:20:57;;;;;;;;;;;1.60;83.50;;;;;;5014363;28;87939;-55
2024/02/02 01:23:23;;;;;;;;;;;1.60;83.40;;;;;;5022929;28;88161;-56
2024/02/02 01:25:48;;;;;;;;;;;1.50;83.40;;;;;;5016916;28;87116;-56
2024/02/02 01:28:14;;;;;;;;;;;1.50;83.40;;;;;;5018440;28;86971;-56
2024/02/02 01:30:40;;;;;;;;;;;1.50;83.40;;;;;;5019896;28;86831;-56
2024/02/02 01:33:06;;;;;;;;;;;1.50;83.40;;;;;;5015160;28;87222;-55
2024/02/02 01:35:31;;;;;;;;;;;1.50;83.50;;;;;;5014005;28;87848;-57
2024/02/02 01:37:57;;;;;;;;;;;1.50;83.40;;;;;;5018494;28;86721;-54
2024/02/02 01:40:22;;;;;;;;;;;1.50;83.50;;;;;;5019870;28;87025;-57
2024/02/02 01:42:48;;;;;;;;;;;1.50;83.40;;;;;;5018149;28;87244;-55
2024/02/02 01:45:14;;;;;;;;;;;1.50;83.40;;;;;;5020840;28;89431;-55
2024/02/02 01:47:39;;;;;;;;;;;1.50;83.50;;;;;;5017036;28;88971;-56
2024/02/02 01:50:06;;;;;;;;;;;1.50;83.50;;;;;;5016524;28;88063;-56
2024/02/02 01:52:32;;;;;;;;;;;1.50;83.50;;;;;;5016770;28;87033;-56
2024/02/02 01:54:58;;;;;;;;;;;1.50;83.50;;;;;;5015549;28;88181;-56
2024/02/02 01:57:24;;;;;;;;;;;1.50;83.60;;;;;;5019127;28;88623;-57
2024/02/02 01:59:49;;;;;;;;;;;1.50;83.60;;;;;;5018215;28;87004;-55
2024/02/02 02:02:15;;;;;;;;;;;1.50;83.50;;;;;;5021217;28;87973;-55
2024/02/02 02:04:41;;;;;;;;;;;1.50;83.60;;;;;;5019282;28;87396;-55
2024/02/02 02:07:07;;;;;;;;;;;1.50;83.60;;;;;;5020852;28;86714;-57
2024/02/02 02:09:33;;;;;;;;;;;1.50;83.50;;;;;;5018371;28;88398;-56
2024/02/02 02:11:59;;;;;;;;;;;1.50;83.40;;;;;;5017891;28;87009;-55
2024/02/02 02:14:25;;;;;;;;;;;1.50;83.50;;;;;;5019166;28;87025;-54
2024/02/02 02:16:50;;;;;;;;;;;1.50;83.60;;;;;;5017333;28;87441;-56
2024/02/02 02:19:16;;;;;;;;;;;1.50;83.60;;;;;;5019293;28;87040;-56
2024/02/02 02:21:42;;;;;;;;;;;1.50;83.60;;;;;;5017804;28;86960;-56
2024/02/02 02:24:11;;;;;;;;;;;1.50;83.50;;;;;;5020029;28;88488;-53
2024/02/02 02:26:37;;;;;;;;;;;1.50;83.50;;;;;;5021592;27;86369;-56
2024/02/02 02:29:02;;;;;;;;;;;1.50;83.50;;;;;;5017526;28;88476;-55
2024/02/02 02:31:28;;;;;;;;;;;1.50;83.50;;;;;;5020378;28;87004;-55
2024/02/02 02:33:54;;;;;;;;;;;1.40;83.50;;;;;;5017894;28;87920;-56
2024/02/02 02:36:22;;;;;;;;;;;1.50;83.60;;;;;;5016087;28;86987;-56
2024/02/02 02:38:48;;;;;;;;;;;1.50;83.60;;;;;;5016159;28;86921;-54
2024/02/02 02:41:14;;;;;;;;;;;1.40;83.60;;;;;;5018110;28;86975;-57
2024/02/02 02:43:40;;;;;;;;;;;1.40;83.60;;;;;;5017675;28;87702;-54
2024/02/02 02:46:06;;;;;;;;;;;1.40;83.70;;;;;;5014152;28;87032;-56
2024/02/02 02:48:31;;;;;;;;;;;1.40;83.70;;;;;;5013171;28;87070;-56
2024/02/02 02:50:57;;;;;;;;;;;1.40;83.60;;;;;;5016619;28;86240;-57
2024/02/02 02:53:23;;;;;;;;;;;1.40;83.70;;;;;;5017869;28;87297;-55
2024/02/02 02:55:48;;;;;;;;;;;1.40;83.60;;;;;;5017603;28;87582;-55
2024/02/02 02:58:14;;;;;;;;;;;1.40;83.70;;;;;;5017088;28;87955;-56
2024/02/02 03:00:40;;;;;;;;;;;1.40;83.70;;;;;;5012169;28;89115;-55
2024/02/02 03:03:05;;;;;;;;;;;1.40;83.80;;;;;;5013557;28;87370;-56
2024/02/02 03:05:31;;;;;;;;;;;1.40;83.80;;;;;;5017536;28;86900;-55
2024/02/02 03:07:56;;;;;;;;;;;1.40;83.70;;;;;;5019736;28;86816;-56
2024/02/02 03:10:25;;;;;;;;;;;1.40;83.70;;;;;;5020402;28;87475;-55
2024/02/02 03:12:53;;;;;;;;;;;1.40;83.70;;;;;;5015107;28;87784;-57
2024/02/02 03:15:19;;;;;;;;;;;1.40;83.80;;;;;;5015631;28;87777;-55
2024/02/02 03:17:45;;;;;;;;;;;1.40;83.80;;;;;;5011375;28;86945;-55
2024/02/02 03:20:11;;;;;;;;;;;1.40;83.90;;;;;;5018422;28;86957;-57
2024/02/02 03:22:37;;;;;;;;;;;1.40;83.80;;;;;;5015062;28;88340;-57
2024/02/02 03:25:03;;;;;;;;;;;1.40;83.80;;;;;;5013480;28;86986;-55
2024/02/02 03:27:28;;;;;;;;;;;1.40;83.90;;;;;;5018314;28;87136;-56
2024/02/02 03:29:54;;;;;;;;;;;1.40;83.90;;;;;;5016447;28;87641;-57
2024/02/02 03:32:20;;;;;;;;;;;1.40;83.90;;;;;;5021028;28;87025;-56
2024/02/02 03:34:46;;;;;;;;;;;1.40;83.90;;;;;;5016221;28;86963;-57
2024/02/02 03:37:11;;;;;;;;;;;1.40;83.90;;;;;;5018006;28;86945;-57
2024/02/02 03:39:37;;;;;;;;;;;1.40;83.90;;;;;;5017434;28;86652;-57
2024/02/02 03:42:04;;;;;;;;;;;1.40;84.00;;;;;;5012502;28;87107;-54
2024/02/02 03:44:30;;;;;;;;;;;1.40;84.00;;;;;;5015002;28;87046;-55
2024/02/02 03:46:55;;;;;;;;;;;1.40;84.00;;;;;;5015442;28;88408;-55
2024/02/02 03:49:21;;;;;;;;;;;1.40;84.00;;;;;;5017584;28;87433;-55
2024/02/02 03:51:46;;;;;;;;;;;1.30;84.00;;;;;;5016496;28;86933;-55
2024/02/02 03:54:12;;;;;;;;;;;1.40;84.00;;;;;;5017668;28;87799;-55
2024/02/02 03:56:40;;;;;;;;;;;1.30;83.90;;;;;;5019139;28;87034;-57
2024/02/02 03:59:06;;;;;;;;;;;1.30;83.90;;;;;;5017867;28;87851;-56
2024/02/02 04:01:31;;;;;;;;;;;1.30;84.00;;;;;;5014934;28;88497;-56
2024/02/02 04:03:57;;;;;;;;;;;1.30;84.10;;;;;;5015618;28;86282;-55
2024/02/02 04:06:23;;;;;;;;;;;1.30;84.00;;;;;;5014816;28;86976;-56
2024/02/02 04:08:48;;;;;;;;;;;1.40;84.10;;;;;;5015198;28;87406;-56
2024/02/02 04:11:14;;;;;;;;;;;1.30;84.10;;;;;;5014149;28;88032;-55
2024/02/02 04:13:40;;;;;;;;;;;1.30;84.10;;;;;;5018396;28;87567;-57
2024/02/02 04:16:05;;;;;;;;;;;1.30;84.00;;;;;;5012198;28;86967;-56
2024/02/02 04:18:31;;;;;;;;;;;1.30;84.00;;;;;;5014867;28;86889;-56
2024/02/02 04:20:57;;;;;;;;;;;1.40;84.00;;;;;;5014473;28;87568;-56
2024/02/02 04:23:24;;;;;;;;;;;1.30;84.00;;;;;;5013887;28;86984;-56
2024/02/02 04:25:50;;;;;;;;;;;1.30;84.00;;;;;;5015501;28;86917;-56
2024/02/02 04:28:15;;;;;;;;;;;1.30;84.10;;;;;;5013268;28;86061;-57
2024/02/02 04:30:41;;;;;;;;;;;1.30;84.10;;;;;;5014828;28;87073;-56
2024/02/02 04:33:07;;;;;;;;;;;1.30;84.10;;;;;;5014089;28;86971;-57
2024/02/02 04:35:34;;;;;;;;;;;1.30;84.20;;;;;;5016262;28;88533;-56
2024/02/02 04:38:04;;;;;;;;;;;1.30;84.20;;;;;;5018307;28;87607;-57
2024/02/02 04:40:30;;;;;;;;;;;1.30;84.20;;;;;;5016866;28;87489;-55
2024/02/02 04:42:56;;;;;;;;;;;1.30;84.20;;;;;;5010738;28;86902;-57
2024/02/02 04:45:21;;;;;;;;;;;1.30;84.20;;;;;;5017954;28;87842;-56
2024/02/02 04:47:47;;;;;;;;;;;1.30;84.20;;;;;;5011036;28;88624;-57
2024/02/02 04:50:12;;;;;;;;;;;1.30;84.20;;;;;;5018386;28;86752;-55
2024/02/02 04:52:38;;;;;;;;;;;1.30;84.40;;;;;;5014975;28;86877;-56
2024/02/02 04:55:04;;;;;;;;;;;1.30;84.40;;;;;;5012952;28;87554;-57
2024/02/02 04:57:30;;;;;;;;;;;1.30;84.30;;;;;;5014545;28;87039;-57
2024/02/02 04:59:55;;;;;;;;;;;1.30;84.30;;;;;;5015183;28;88327;-56
2024/02/02 05:02:21;;;;;;;;;;;1.30;84.30;;;;;;5011657;28;87133;-56
2024/02/02 05:04:47;;;;;;;;;;;1.30;84.30;;;;;;5018246;28;86853;-56
2024/02/02 05:07:12;;;;;;;;;;;1.30;84.30;;;;;;5014010;28;87360;-57
2024/02/02 05:09:38;;;;;;;;;;;1.30;84.40;;;;;;5014113;28;87062;-56
2024/02/02 05:12:05;;;;;;;;;;;1.30;84.30;;;;;;5018509;28;86803;-56
2024/02/02 05:14:30;;;;;;;;;;;1.30;84.50;;;;;;5017114;28;88691;-57
2024/02/02 05:16:56;;;;;;;;;;;1.30;84.30;;;;;;5014519;28;86999;-57
2024/02/02 05:19:21;;;;;;;;;;;1.30;84.50;;;;;;5020389;28;86913;-53
2024/02/02 05:21:47;;;;;;;;;;;1.30;84.50;;;;;;5014170;28;87073;-56
2024/02/02 05:24:12;;;;;;;;;;;1.30;84.40;;;;;;5013562;28;87819;-56
2024/02/02 05:26:38;;;;;;;;;;;1.30;84.40;;;;;;5014318;28;87456;-56
2024/02/02 05:29:04;;;;;;;;;;;1.30;84.50;;;;;;5021410;28;87060;-55
2024/02/02 05:31:29;;;;;;;;;;;1.30;84.60;;;;;;5020947;28;87044;-56
2024/02/02 05:33:55;;;;;;;;;;;1.30;84.60;;;;;;5020837;28;87359;-55
2024/02/02 05:36:20;;;;;;;;;;;1.30;84.60;;;;;;5015695;28;87019;-57
2024/02/02 05:38:46;;;;;;;;;;;1.30;84.70;;;;;;5020766;28;87900;-57
2024/02/02 05:41:12;;;;;;;;;;;1.30;84.50;;;;;;5020002;28;88231;-56
2024/02/02 05:43:37;;;;;;;;;;;1.30;84.70;;;;;;5020938;28;86872;-53
2024/02/02 05:46:05;;;;;;;;;;;1.30;84.60;;;;;;5016643;28;86862;-56
2024/02/02 05:48:30;;;;;;;;;;;1.30;84.70;;;;;;5012538;28;87977;-57
2024/02/02 05:50:56;;;;;;;;;;;1.30;84.70;;;;;;5020053;28;87604;-56
2024/02/02 05:53:22;;;;;;;;;;;1.30;84.80;;;;;;5009403;28;88931;-56
2024/02/02 05:55:47;;;;;;;;;;;1.30;84.70;;;;;;5016843;28;87027;-56
2024/02/02 05:58:13;;;;;;;;;;;1.30;85.00;;;;;;5016274;28;86851;-56
2024/02/02 06:00:39;;;;;;;;;;;1.30;84.90;;;;;;5016293;28;87822;-55
2024/02/02 06:03:04;;;;;;;;;;;1.20;84.90;;;;;;5023498;28;87107;-55
2024/02/02 06:05:32;;;;;;;;;;;1.30;85.00;;;;;;5017103;28;86530;-57
2024/02/02 06:08:00;;;;;;;;;;;1.30;85.10;;;;;;5013687;28;86941;-55
2024/02/02 06:10:25;;;;;;;;;;;1.30;85.10;;;;;;5014349;28;87354;-55
2024/02/02 06:12:51;;;;;;;;;;;1.20;85.10;;;;;;5019053;28;89560;-56
2024/02/02 06:15:16;;;;;;;;;;;1.20;85.20;;;;;;5016576;28;86989;-56
2024/02/02 06:17:42;;;;;;;;;;;1.20;85.10;;;;;;5014244;28;86880;-56
2024/02/02 06:20:08;;;;;;;;;;;1.30;85.20;;;;;;5017668;28;87596;-56
2024/02/02 06:22:34;;;;;;;;;;;1.30;85.10;;;;;;5019470;28;86945;-54
2024/02/02 06:24:59;;;;;;;;;;;1.30;85.10;;;;;;5016321;28;87238;-56
2024/02/02 06:27:27;;;;;;;;;;;1.30;85.30;;;;;;5020464;28;86912;-56
2024/02/02 06:29:52;;;;;;;;;;;1.30;85.20;;;;;;5017155;28;87610;-56
2024/02/02 06:32:21;;;;;;;;;;;1.30;85.20;;;;;;5019498;28;88568;-55
2024/02/02 06:34:48;;;;;;;;;;;1.20;85.40;;;;;;5016791;28;87105;-56
2024/02/02 06:37:14;;;;;;;;;;;1.20;85.40;;;;;;5018020;28;90188;-56
2024/02/02 06:39:40;;;;;;;;;;;1.30;85.40;;;;;;5015235;28;88169;-57
2024/02/02 06:42:05;;;;;;;;;;;1.30;85.20;;;;;;5016755;28;86987;-55
2024/02/02 06:44:32;;;;;;;;;;;1.30;85.40;;;;;;5021343;28;87923;-56
2024/02/02 06:46:58;;;;;;;;;;;1.30;85.50;;;;;;5017048;28;87026;-56
2024/02/02 06:49:23;;;;;;;;;;;1.30;85.40;;;;;;5018427;28;87076;-57
2024/02/02 06:51:49;;;;;;;;;;;1.30;85.50;;;;;;5014377;28;87475;-55
2024/02/02 06:54:15;;;;;;;;;;;1.30;85.40;;;;;;5016711;28;86230;-57
2024/02/02 06:56:45;;;;;;;;;;;1.30;85.40;;;;;;5012875;28;88402;-56
2024/02/02 06:59:10;;;;;;;;;;;1.30;85.40;;;;;;5014987;28;87422;-55
2024/02/02 07:01:36;;;;;;;;;;;1.20;85.40;;;;;;5012671;28;87959;-56
2024/02/02 07:04:03;;;;;;;;;;;1.30;85.50;;;;;;5018461;28;88780;-57
2024/02/02 07:06:31;;;;;;;;;;;1.20;85.50;;;;;;5019866;28;88550;-55
2024/02/02 07:09:00;;;;;;;;;;;1.30;85.50;;;;;;5015774;28;86991;-57
2024/02/02 07:11:38;;;;;;;;;;;1.30;85.40;;;;;;5019472;28;87506;-54
2024/02/02 07:14:08;;;;;;;;;;;1.30;85.40;;;;;;5015662;28;87015;-57
2024/02/02 07:16:33;;;;;;;;;;;1.30;86.10;;;;;;5012527;28;87043;-57
2024/02/02 07:18:59;;;;;;;;;;;1.30;85.50;;;;;;5015121;28;86797;-54
2024/02/02 07:21:30;;;;;;;;;;;1.30;85.50;;;;;;5016129;28;87018;-56
2024/02/02 07:23:57;;;;;;;;;;;1.30;85.60;;;;;;5018235;28;88284;-56
2024/02/02 07:26:26;;;;;;;;;;;1.30;85.50;;;;;;5010837;28;88391;-56
2024/02/02 07:28:52;;;;;;;;;;;1.30;85.50;;;;;;5012475;28;86954;-57
2024/02/02 07:31:37;;;;;;;;;;;1.30;85.50;;;;;;5008873;28;87819;-53
2024/02/02 07:34:16;;;;;;;;;;;1.30;85.60;;;;;;5018591;28;86779;-56
2024/02/02 07:36:41;;;;;;;;;;;1.30;85.40;;;;;;5015695;28;86864;-57
2024/02/02 07:39:17;;;;;;;;;;;1.30;85.50;;;;;;5012511;28;87486;-56
2024/02/02 07:41:43;;;;;;;;;;;1.30;85.60;;;;;;5014476;28;86992;-55
2024/02/02 07:44:09;;;;;;;;;;;1.30;85.50;;;;;;5016009;28;86448;-56
2024/02/02 07:46:35;;;;;;;;;;;1.30;85.70;;;;;;5009592;28;88692;-55
2024/02/02 07:49:03;;;;;;;;;;;1.30;85.60;;;;;;5018543;28;87100;-57
2024/02/02 07:51:28;;;;;;;;;;;1.30;85.50;;;;;;5014914;28;88086;-56
2024/02/02 07:53:54;;;;;;;;;;;1.30;85.50;;;;;;5015319;28;87077;-56
2024/02/02 07:56:22;;;;;;;;;;;1.30;85.60;;;;;;5015201;28;87987;-55
2024/02/02 07:58:47;;;;;;;;;;;1.30;85.50;;;;;;5018324;28;88630;-56
2024/02/02 08:01:14;;;;;;;;;;;1.30;85.50;;;;;;5015601;28;87045;-57
2024/02/02 08:03:39;;;;;;;;;;;1.30;85.40;;;;;;5018871;28;87926;-56
2024/02/02 08:06:06;;;;;;;;;;;1.30;85.50;;;;;;5018125;28;87460;-57
2024/02/02 08:08:32;;;;;;;;;;;1.30;85.50;;;;;;5015731;28;86275;-57
2024/02/02 08:10:59;;;;;;;;;;;1.30;85.50;;;;;;5015489;28;86947;-57
2024/02/02 08:13:25;;;;;;;;;;;1.30;85.30;;;;;;5017211;28;88636;-57
2024/02/02 08:15:51;;;;;;;;;;;1.40;85.50;;;;;;5018534;28;88519;-56
2024/02/02 08:18:16;;;;;;;;;;;1.30;85.40;;;;;;5016963;28;87373;-55
2024/02/02 08:20:42;;;;;;;;;;;1.30;85.30;;;;;;5013511;28;87070;-55
2024/02/02 08:23:07;;;;;;;;;;;1.30;85.40;;;;;;5021871;28;87761;-56
2024/02/02 08:25:33;;;;;;;;;;;1.30;85.30;;;;;;5015124;28;87412;-55
2024/02/02 08:27:59;;;;;;;;;;;1.40;85.60;;;;;;5015483;28;88487;-56
2024/02/02 08:30:25;;;;;;;;;;;1.40;85.60;;;;;;5015216;28;87847;-56
2024/02/02 08:32:53;;;;;;;;;;;1.40;85.60;;;;;;5021101;28;86311;-54
2024/02/02 08:35:20;;;;;;;;;;;1.30;85.80;;;;;;5019991;28;86861;-56
2024/02/02 08:37:46;;;;;;;;;;;1.30;85.60;;;;;;5016527;28;87510;-55
2024/02/02 08:40:20;;;;;;;;;;;1.30;85.60;;;;;;5016104;28;87889;-57
2024/02/02 08:42:45;;;;;;;;;;;1.30;85.80;;;;;;5016987;28;88354;-56
2024/02/02 08:45:20;;;;;;;;;;;1.30;85.70;;;;;;5015667;28;87478;-56
2024/02/02 08:47:46;;;;;;;;;;;1.30;85.50;;;;;;5018012;28;86847;-56
2024/02/02 08:50:12;;;;;;;;;;;1.30;85.70;;;;;;5018005;28;87033;-56
2024/02/02 08:52:40;;;;;;;;;;;1.40;85.90;;;;;;5013375;28;87579;-57
2024/02/02 08:55:06;;;;;;;;;;;1.40;85.80;;;;;;5018192;28;87039;-55
2024/02/02 08:57:36;;;;;;;;;;;1.40;85.80;;;;;;5012086;28;87697;-57
2024/02/02 09:00:11;;;;;;;;;;;1.40;85.70;;;;;;5014763;28;86974;-56
2024/02/02 09:02:36;;;;;;;;;;;1.40;85.60;;;;;;5019130;28;86793;-57
2024/02/02 09:05:06;;;;;;;;;;;1.40;85.70;;;;;;5014625;28;88656;-57
2024/02/02 09:07:32;;;;;;;;;;;1.40;85.70;;;;;;5017351;28;87045;-57
2024/02/02 09:09:57;;;;;;;;;;;1.40;85.60;;;;;;5017564;28;87162;-56
2024/02/02 09:12:27;;;;;;;;;;;1.40;85.60;;;;;;5015741;28;87394;-57
2024/02/02 09:14:53;;;;;;;;;;;1.40;85.70;;;;;;5018914;28;86975;-56
2024/02/02 09:17:19;;;;;;;;;;;1.40;85.80;;;;;;5019931;28;87005;-56
2024/02/02 09:19:47;;;;;;;;;;;1.40;85.80;;;;;;5018343;28;86968;-56
2024/02/02 09:22:17;;;;;;;;;;;1.40;85.70;;;;;;5021925;28;87930;-57
2024/02/02 09:24:46;;;;;;;;;;;1.40;85.90;;;;;;5020903;28;88428;-57
2024/02/02 09:27:26;;;;;;;;;;;1.40;85.80;;;;;;5011986;28;86986;-57
2024/02/02 09:29:52;;;;;;;;;;;1.50;85.70;;;;;;5016163;28;87966;-57
2024/02/02 09:32:17;;;;;;;;;;;1.50;85.60;;;;;;5018949;28;87256;-56
2024/02/02 09:34:44;;;;;;;;;;;1.50;85.90;;;;;;5019164;28;86772;-56
2024/02/02 09:37:29;;;;;;;;;;;1.50;85.90;;;;;;5019655;28;86822;-57
2024/02/02 09:39:55;;;;;;;;;;;1.50;85.90;;;;;;5018374;28;86821;-57
2024/02/02 09:42:21;;;;;;;;;;;1.50;85.90;;;;;;5019551;28;86968;-57
2024/02/02 09:44:48;;;;;;;;;;;1.50;86.10;;;;;;5012710;28;87500;-57
2024/02/02 09:47:25;;;;;;;;;;;1.50;86.30;;;;;;5018741;28;86212;-55
2024/02/02 09:50:00;;;;;;;;;;;1.50;86.10;;;;;;5013410;28;87446;-57
2024/02/02 09:52:44;;;;;;;;;;;1.50;86.20;;;;;;5016486;28;88519;-56
2024/02/02 09:55:13;;;;;;;;;;;1.50;86.00;;;;;;5018922;28;87836;-57
2024/02/02 09:57:44;;;;;;;;;;;1.50;86.10;;;;;;5018003;28;87533;-54
2024/02/02 10:00:28;;;;;;;;;;;1.50;86.00;;;;;;5020293;28;87565;-56
2024/02/02 10:02:58;;;;;;;;;;;1.50;86.20;;;;;;5021921;28;86922;-55
2024/02/02 10:05:33;;;;;;;;;;;1.60;86.00;;;;;;5019914;28;88652;-55
2024/02/02 10:08:01;;;;;;;;;;;1.50;86.10;;;;;;5015934;28;87021;-56
2024/02/02 10:10:46;;;;;;;;;;;1.60;86.30;;;;;;5012816;28;87094;-56
2024/02/02 10:13:24;;;;;;;;;;;1.60;86.00;;;;;;5016198;28;86731;-56
2024/02/02 10:16:10;;;;;;;;;;;1.60;86.20;;;;;;5013396;28;87423;-56
2024/02/02 10:18:39;;;;;;;;;;;1.60;86.50;;;;;;5013293;28;87022;-55
2024/02/02 10:21:25;;;;;;;;;;;1.50;86.50;;;;;;5019301;28;89321;-57
2024/02/02 10:23:50;;;;;;;;;;;1.60;86.40;;;;;;5014300;28;87801;-54
2024/02/02 10:26:16;;;;;;;;;;;1.60;86.20;;;;;;5014522;28;87622;-56
2024/02/02 10:28:44;;;;;;;;;;;1.60;86.30;;;;;;5017849;28;86958;-56
2024/02/02 10:31:15;;;;;;;;;;;1.60;86.10;;;;;;5019477;28;87051;-55
2024/02/02 10:33:44;;;;;;;;;;;1.60;86.30;;;;;;5016534;28;87314;-56
2024/02/02 10:36:12;;;;;;;;;;;1.60;86.20;;;;;;5016581;28;87064;-55
2024/02/02 10:39:02;;;;;;;;;;;1.60;86.40;;;;;;5014880;28;88041;-56
2024/02/02 10:41:43;;;;;;;;;;;1.60;86.40;;;;;;5014318;28;88481;-55
2024/02/02 10:44:11;;;;;;;;;;;1.60;86.60;;;;;;5014776;28;87161;-55
2024/02/02 10:46:49;;;;;;;;;;;1.60;86.30;;;;;;5020413;28;87999;-57
2024/02/02 10:49:21;;;;;;;;;;;1.60;86.20;;;;;;5012055;28;87091;-55
2024/02/02 10:52:05;;;;;;;;;;;1.60;86.30;;;;;;5012868;28;86908;-53
2024/02/02 10:54:57;;;;;;;;;;;1.60;86.30;;;;;;5019832;28;87259;-54
2024/02/02 10:57:49;;;;;;;;;;;1.60;86.40;;;;;;5014825;28;86865;-55
2024/02/02 11:00:15;;;;;;;;;;;1.70;86.40;;;;;;5017878;28;86975;-53
2024/02/02 11:02:46;;;;;;;;;;;1.60;86.50;;;;;;5015102;28;88472;-55
2024/02/02 11:05:15;;;;;;;;;;;1.60;86.40;;;;;;5017200;28;86358;-56
2024/02/02 11:07:49;;;;;;;;;;;1.70;86.30;;;;;;5016531;28;87087;-55
2024/02/02 11:10:17;;;;;;;;;;;1.70;86.50;;;;;;5022199;28;87446;-55
2024/02/02 11:13:03;;;;;;;;;;;1.70;86.40;;;;;;5019339;28;87999;-56
2024/02/02 11:15:47;;;;;;;;;;;1.70;86.40;;;;;;5018354;28;88463;-55
2024/02/02 11:18:12;;;;;;;;;;;1.70;86.10;;;;;;5018181;28;86877;-56
2024/02/02 11:20:56;;;;;;;;;;;1.70;86.10;;;;;;5017261;28;87304;-56
2024/02/02 11:23:22;;;;;;;;;;;1.70;86.50;;;;;;5019292;28;87495;-55
2024/02/02 11:25:55;;;;;;;;;;;1.70;86.70;;;;;;5015721;28;86945;-54
2024/02/02 11:28:32;;;;;;;;;;;1.70;86.40;;;;;;5017816;28;86815;-55
2024/02/02 11:31:06;;;;;;;;;;;1.70;86.70;;;;;;5018818;28;86856;-56
2024/02/02 11:33:35;;;;;;;;;;;1.70;86.70;;;;;;5017274;28;87079;-54
2024/02/02 11:36:13;;;;;;;;;;;1.70;86.50;;;;;;5012285;28;88541;-56
2024/02/02 11:38:54;;;;;;;;;;;1.70;86.90;;;;;;5014860;28;87987;-55
2024/02/02 11:41:22;;;;;;;;;;;1.70;86.50;;;;;;5011263;28;88807;-56
2024/02/02 11:43:49;;;;;;;;;;;1.70;86.80;;;;;;5017848;28;88577;-55
2024/02/02 11:46:16;;;;;;;;;;;1.70;86.70;;;;;;5013870;28;87046;-54
2024/02/02 11:48:43;;;;;;;;;;;1.70;86.90;;;;;;5019150;28;88013;-56
2024/02/02 11:51:09;;;;;;;;;;;1.70;86.80;;;;;;5015101;28;88379;-55
2024/02/02 11:53:57;;;;;;;;;;;1.70;86.90;;;;;;5016458;28;86921;-56
2024/02/02 11:56:27;;;;;;;;;;;1.70;86.80;;;;;;5021611;28;87002;-55
2024/02/02 11:58:58;;;;;;;;;;;1.80;86.90;;;;;;5011840;28;86997;-54
2024/02/02 12:01:27;;;;;;;;;;;1.80;87.00;;;;;;5016656;28;88808;-57
2024/02/02 12:04:16;;;;;;;;;;;1.70;86.90;;;;;;5015991;28;89476;-54
2024/02/02 12:07:00;;;;;;;;;;;1.70;87.00;;;;;;5015951;28;87031;-56
2024/02/02 12:09:38;;;;;;;;;;;1.80;87.00;;;;;;5018655;28;86849;-55
2024/02/02 12:12:09;;;;;;;;;;;1.80;87.00;;;;;;5016197;28;87558;-56
2024/02/02 12:14:36;;;;;;;;;;;1.80;87.00;;;;;;5016261;28;87025;-55
2024/02/02 12:17:02;;;;;;;;;;;1.80;87.10;;;;;;5016485;28;87483;-55
2024/02/02 12:19:27;;;;;;;;;;;1.70;86.90;;;;;;5013914;28;87301;-57
2024/02/02 12:21:53;;;;;;;;;;;1.70;87.20;;;;;;5015184;28;86976;-57
2024/02/02 12:24:19;;;;;;;;;;;1.80;86.90;;;;;;5016487;28;88447;-54
2024/02/02 12:26:46;;;;;;;;;;;1.80;87.10;;;;;;5012672;28;86998;-56
2024/02/02 12:29:13;;;;;;;;;;;1.70;87.20;;;;;;5016194;28;87860;-52
2024/02/02 12:31:39;;;;;;;;;;;1.80;87.20;;;;;;5017899;28;88552;-55
2024/02/02 12:34:04;;;;;;;;;;;1.80;87.00;;;;;;5015687;28;87009;-57
2024/02/02 12:36:30;;;;;;;;;;;1.70;87.00;;;;;;5018570;28;87121;-56
2024/02/02 12:39:05;;;;;;;;;;;1.80;87.20;;;;;;5018912;28;87469;-56
2024/02/02 12:41:31;;;;;;;;;;;1.80;87.10;;;;;;5020398;28;86945;-53
2024/02/02 12:43:57;;;;;;;;;;;1.80;87.10;;;;;;5017831;28;87509;-55
2024/02/02 12:46:23;;;;;;;;;;;1.80;87.00;;;;;;5022124;28;86288;-53
2024/02/02 12:48:49;;;;;;;;;;;1.80;87.20;;;;;;5014494;28;87095;-54
2024/02/02 12:51:14;;;;;;;;;;;1.80;87.10;;;;;;5024710;28;87774;-55
2024/02/02 12:53:40;;;;;;;;;;;1.80;87.20;;;;;;5017414;28;87987;-57
2024/02/02 12:56:07;;;;;;;;;;;1.80;87.10;;;;;;5017792;28;88887;-56
2024/02/02 12:58:32;;;;;;;;;;;1.80;87.20;;;;;;5018576;28;88385;-57
2024/02/02 13:00:58;;;;;;;;;;;1.80;87.40;;;;;;5019569;28;87178;-56
2024/02/02 13:03:23;;;;;;;;;;;1.80;87.30;;;;;;5016853;28;88420;-54
2024/02/02 13:05:51;;;;;;;;;;;1.80;87.40;;;;;;5022185;28;86979;-56
2024/02/02 13:08:35;;;;;;;;;;;1.80;87.40;;;;;;5021725;28;88019;-55
2024/02/02 13:11:01;;;;;;;;;;;1.80;87.40;;;;;;5021945;28;86806;-56
2024/02/02 13:13:27;;;;;;;;;;;1.80;87.10;;;;;;5020895;28;87500;-55
2024/02/02 13:15:53;;;;;;;;;;;1.80;87.20;;;;;;5017524;28;88029;-55
2024/02/02 13:18:19;;;;;;;;;;;1.80;87.20;;;;;;5016437;28;87865;-55
2024/02/02 13:20:49;;;;;;;;;;;1.80;87.30;;;;;;5019783;28;87086;-56
2024/02/02 13:23:23;;;;;;;;;;;1.80;87.30;;;;;;5023915;28;86973;-53
2024/02/02 13:25:57;;;;;;;;;;;1.80;87.30;;;;;;5018145;28;86998;-56
2024/02/02 13:28:25;;;;;;;;;;;1.80;87.20;;;;;;5019259;28;87934;-56
2024/02/02 13:31:06;;;;;;;;;;;1.80;87.40;;;;;;5018931;28;88406;-53
2024/02/02 13:33:32;;;;;;;;;;;1.80;87.40;;;;;;5017060;28;86939;-55
2024/02/02 13:35:59;;;;;;;;;;;1.80;87.50;;;;;;5017943;28;88090;-56
2024/02/02 13:38:25;;;;;;;;;;;1.80;87.60;;;;;;5020392;28;87614;-57
2024/02/02 13:40:54;;;;;;;;;;;1.80;87.50;;;;;;5018655;28;87116;-56
2024/02/02 13:43:20;;;;;;;;;;;1.80;87.70;;;;;;5014070;28;88317;-53
2024/02/02 13:45:48;;;;;;;;;;;1.80;87.70;;;;;;5013855;28;87724;-56
2024/02/02 13:48:14;;;;;;;;;;;1.80;87.70;;;;;;5014697;28;87880;-56
2024/02/02 13:50:59;;;;;;;;;;;1.80;87.60;;;;;;5017146;28;87795;-56
2024/02/02 13:53:25;;;;;;;;;;;1.80;87.50;;;;;;5016943;28;86794;-53
2024/02/02 13:55:52;;;;;;;;;;;1.80;87.70;;;;;;5016924;28;87955;-55
2024/02/02 13:58:17;;;;;;;;;;;1.90;87.70;;;;;;5016241;28;88732;-55
2024/02/02 14:00:43;;;;;;;;;;;1.80;87.60;;;;;;5014838;28;86224;-56
2024/02/02 14:03:09;;;;;;;;;;;1.90;87.70;;;;;;5019946;28;87653;-56
2024/02/02 14:05:41;;;;;;;;;;;1.80;87.70;;;;;;5011976;28;88671;-54
2024/02/02 14:08:07;;;;;;;;;;;1.90;87.90;;;;;;5015543;28;87983;-54
2024/02/02 14:10:42;;;;;;;;;;;1.90;87.80;;;;;;5019115;28;87369;-55
2024/02/02 14:13:16;;;;;;;;;;;1.90;87.70;;;;;;5016732;28;86921;-55
2024/02/02 14:15:43;;;;;;;;;;;1.90;87.90;;;;;;5013911;28;88026;-56
2024/02/02 14:18:10;;;;;;;;;;;1.90;87.60;;;;;;5013231;28;87457;-56
2024/02/02 14:20:36;;;;;;;;;;;1.90;87.70;;;;;;5020505;28;87115;-55
2024/02/02 14:23:11;;;;;;;;;;;1.90;87.50;;;;;;5016297;28;87820;-55
2024/02/02 14:25:37;;;;;;;;;;;1.90;87.70;;;;;;5021614;28;86021;-55
2024/02/02 14:28:16;;;;;;;;;;;1.90;87.60;;;;;;5019170;28;86922;-55
2024/02/02 14:30:42;;;;;;;;;;;1.90;87.50;;;;;;5018724;28;87004;-53
2024/02/02 14:33:08;;;;;;;;;;;1.90;87.40;;;;;;5018821;28;87904;-56
2024/02/02 14:35:33;;;;;;;;;;;1.90;87.30;;;;;;5014649;28;87795;-55